createdAt,value
2022-12-23T00:00:07.745Z,61.05
2022-12-23T00:01:07.708Z,62.13
2022-12-23T00:02:07.831Z,62.70
2022-12-23T00:03:07.824Z,61.03
2022-12-23T00:04:07.780Z,61.01
2022-12-23T00:05:07.680Z,62.33
2022-12-23T00:06:07.660Z,60.24
2022-12-23T00:07:07.647Z,59.09
2022-12-23T00:08:07.663Z,60.90
2022-12-23T00:09:07.626Z,63.36
2022-12-23T00:10:07.647Z,62.05
2022-12-23T00:11:07.610Z,61.70
2022-12-23T00:12:07.610Z,61.73
2022-12-23T00:13:07.614Z,60.84
2022-12-23T00:14:07.595Z,60.96
2022-12-23T00:15:07.613Z,61.53
2022-12-23T00:16:07.592Z,60.79
2022-12-23T00:17:21.667Z,60.57
2022-12-23T00:18:09.536Z,63.51
2022-12-23T00:19:07.526Z,61.67
2022-12-23T00:20:07.568Z,61.96
2022-12-23T00:21:09.084Z,61.27
2022-12-23T00:22:07.497Z,59.70
2022-12-23T00:23:07.489Z,61.60
2022-12-23T00:24:07.480Z,60.52
2022-12-23T00:25:07.485Z,60.68
2022-12-23T00:26:07.473Z,60.87
2022-12-23T00:27:07.453Z,61.88
2022-12-23T00:28:07.445Z,60.58
2022-12-23T00:29:07.432Z,57.86
2022-12-23T00:30:07.435Z,59.54
2022-12-23T00:31:07.447Z,60.44
2022-12-23T00:32:07.508Z,61.66
2022-12-23T00:33:07.395Z,60.24
2022-12-23T00:34:07.381Z,60.99
2022-12-23T00:35:07.387Z,59.91
2022-12-23T00:36:07.394Z,60.77
2022-12-23T00:37:07.350Z,61.51
2022-12-23T00:38:07.341Z,60.03
2022-12-23T00:39:07.335Z,60.22
2022-12-23T00:40:07.343Z,60.48
2022-12-23T00:41:07.316Z,60.18
2022-12-23T00:42:07.303Z,59.72
2022-12-23T00:43:07.285Z,60.84
2022-12-23T00:44:07.279Z,61.08
2022-12-23T00:45:07.283Z,60.96
2022-12-23T00:46:07.304Z,59.20
2022-12-23T00:47:08.147Z,60.65
2022-12-23T00:48:07.394Z,59.53
2022-12-23T00:49:07.221Z,58.90
2022-12-23T00:50:07.262Z,59.26
2022-12-23T00:51:07.219Z,59.32
2022-12-23T00:52:07.195Z,61.82
2022-12-23T00:53:07.197Z,61.53
2022-12-23T00:54:07.183Z,59.72
2022-12-23T00:55:07.168Z,61.44
2022-12-23T00:56:07.176Z,60.06
2022-12-23T00:57:07.184Z,61.77
2022-12-23T00:58:07.138Z,59.39
2022-12-23T00:59:07.143Z,61.11
2022-12-23T01:00:07.128Z,59.45
2022-12-23T01:01:07.149Z,60.96
2022-12-23T01:02:07.253Z,61.11
2022-12-23T01:03:07.228Z,61.29
2022-12-23T01:04:07.091Z,60.98
2022-12-23T01:05:07.077Z,59.88
2022-12-23T01:06:07.088Z,62.31
2022-12-23T01:07:07.049Z,61.30
2022-12-23T01:08:07.053Z,58.90
2022-12-23T01:09:07.048Z,61.01
2022-12-23T01:10:07.020Z,59.60
2022-12-23T01:11:07.022Z,58.30
2022-12-23T01:12:07.013Z,60.49
2022-12-23T01:13:06.992Z,60.48
2022-12-23T01:14:06.988Z,60.89
2022-12-23T01:15:06.975Z,61.88
2022-12-23T01:16:11.782Z,60.15
2022-12-23T01:17:07.029Z,61.52
2022-12-23T01:18:06.952Z,58.98
2022-12-23T01:19:06.931Z,59.01
2022-12-23T01:20:06.928Z,61.29
2022-12-23T01:21:06.929Z,62.51
2022-12-23T01:22:06.925Z,62.28
2022-12-23T01:23:06.887Z,60.98
2022-12-23T01:24:06.882Z,59.37
2022-12-23T01:25:06.880Z,60.15
2022-12-23T01:26:40.590Z,57.30
2022-12-23T01:27:06.849Z,61.46
2022-12-23T01:28:06.842Z,59.25
2022-12-23T01:29:06.830Z,58.54
2022-12-23T01:30:06.824Z,59.19
2022-12-23T01:31:06.832Z,60.84
2022-12-23T01:32:06.887Z,59.51
2022-12-23T01:33:06.796Z,59.49
2022-12-23T01:34:06.790Z,61.65
2022-12-23T01:35:06.782Z,59.84
2022-12-23T01:36:06.790Z,60.55
2022-12-23T01:37:06.775Z,61.84
2022-12-23T01:38:06.752Z,59.28
2022-12-23T01:39:06.755Z,59.59
2022-12-23T01:40:06.729Z,60.09
2022-12-23T01:41:06.742Z,61.43
2022-12-23T01:42:06.714Z,59.53
2022-12-23T01:43:06.709Z,59.54
2022-12-23T01:44:06.697Z,61.59
2022-12-23T01:45:06.688Z,61.95
2022-12-23T01:46:06.727Z,59.73
2022-12-23T01:47:06.676Z,59.90
2022-12-23T01:48:06.674Z,59.98
2022-12-23T01:49:06.643Z,58.38
2022-12-23T01:50:06.636Z,61.18
2022-12-23T01:51:06.643Z,59.48
2022-12-23T01:52:06.617Z,60.07
2022-12-23T01:53:08.020Z,58.77
2022-12-23T01:54:07.595Z,59.45
2022-12-23T01:55:06.577Z,59.58
2022-12-23T01:56:06.606Z,61.47
2022-12-23T01:57:06.576Z,59.55
2022-12-23T01:58:06.587Z,60.98
2022-12-23T01:59:06.538Z,61.40
2022-12-23T02:00:06.525Z,61.28
2022-12-23T02:01:06.556Z,59.78
2022-12-23T02:02:06.664Z,60.67
2022-12-23T02:03:06.676Z,61.24
2022-12-23T02:04:06.505Z,62.59
2022-12-23T02:05:06.489Z,61.01
2022-12-23T02:06:06.495Z,61.64
2022-12-23T02:07:06.457Z,60.08
2022-12-23T02:08:06.451Z,61.16
2022-12-23T02:09:06.458Z,60.05
2022-12-23T02:10:06.444Z,59.81
2022-12-23T02:11:06.465Z,61.90
2022-12-23T02:12:06.416Z,61.89
2022-12-23T02:13:06.408Z,60.62
2022-12-23T02:14:06.405Z,60.77
2022-12-23T02:15:06.396Z,58.89
2022-12-23T02:16:06.401Z,58.94
2022-12-23T02:17:06.495Z,61.72
2022-12-23T02:18:06.361Z,60.21
2022-12-23T02:19:06.337Z,60.23
2022-12-23T02:20:06.340Z,59.93
2022-12-23T02:21:06.352Z,60.76
2022-12-23T02:22:06.336Z,61.47
2022-12-23T02:23:06.312Z,60.88
2022-12-23T02:24:06.307Z,62.55
2022-12-23T02:25:06.289Z,58.78
2022-12-23T02:26:06.292Z,59.82
2022-12-23T02:27:06.268Z,59.95
2022-12-23T02:28:06.262Z,60.81
2022-12-23T02:29:06.255Z,62.47
2022-12-23T02:30:06.244Z,59.22
2022-12-23T02:31:06.552Z,61.10
2022-12-23T02:32:06.215Z,59.36
2022-12-23T02:33:06.206Z,59.90
2022-12-23T02:34:06.210Z,61.80
2022-12-23T02:35:06.196Z,59.10
2022-12-23T02:36:06.177Z,59.28
2022-12-23T02:37:06.190Z,60.22
2022-12-23T02:38:06.157Z,60.22
2022-12-23T02:39:06.148Z,60.43
2022-12-23T02:40:06.139Z,61.01
2022-12-23T02:41:06.129Z,61.39
2022-12-23T02:42:06.137Z,60.21
2022-12-23T02:43:06.126Z,61.34
2022-12-23T02:44:06.101Z,60.52
2022-12-23T02:45:06.105Z,58.49
2022-12-23T02:46:06.178Z,61.55
2022-12-23T02:47:06.097Z,59.13
2022-12-23T02:48:06.065Z,59.56
2022-12-23T02:49:06.057Z,58.82
2022-12-23T02:50:06.041Z,58.65
2022-12-23T02:51:06.039Z,60.12
2022-12-23T02:52:06.038Z,60.58
2022-12-23T02:53:06.021Z,61.32
2022-12-23T02:54:05.991Z,58.65
2022-12-23T02:55:05.985Z,60.54
2022-12-23T02:56:05.990Z,59.69
2022-12-23T02:57:05.984Z,60.03
2022-12-23T02:58:05.968Z,59.14
2022-12-23T02:59:05.963Z,60.65
2022-12-23T03:00:05.946Z,59.56
2022-12-23T03:01:06.027Z,58.91
2022-12-23T03:02:06.120Z,59.58
2022-12-23T03:03:06.042Z,60.24
2022-12-23T03:04:06.888Z,61.44
2022-12-23T03:05:06.901Z,59.89
2022-12-23T03:06:05.871Z,61.37
2022-12-23T03:07:08.023Z,60.64
2022-12-23T03:08:06.869Z,61.57
2022-12-23T03:09:05.859Z,58.81
2022-12-23T03:10:05.836Z,58.84
2022-12-23T03:11:05.820Z,58.44
2022-12-23T03:12:05.846Z,60.87
2022-12-23T03:13:05.809Z,60.67
2022-12-23T03:14:05.797Z,59.19
2022-12-23T03:15:05.789Z,57.93
2022-12-23T03:16:05.864Z,57.71
2022-12-23T03:17:05.792Z,58.90
2022-12-23T03:18:05.763Z,58.46
2022-12-23T03:19:05.754Z,59.68
2022-12-23T03:20:05.735Z,57.73
2022-12-23T03:21:05.732Z,59.36
2022-12-23T03:22:05.728Z,59.77
2022-12-23T03:23:05.710Z,60.50
2022-12-23T03:24:05.700Z,59.70
2022-12-23T03:25:05.698Z,61.51
2022-12-23T03:26:05.670Z,60.28
2022-12-23T03:27:05.706Z,59.39
2022-12-23T03:28:05.673Z,58.46
2022-12-23T03:29:05.656Z,59.90
2022-12-23T03:30:05.640Z,60.12
2022-12-23T03:31:05.713Z,58.80
2022-12-23T03:32:05.662Z,60.04
2022-12-23T03:33:05.612Z,60.16
2022-12-23T03:34:05.608Z,58.98
2022-12-23T03:35:05.591Z,58.09
2022-12-23T03:36:05.585Z,60.59
2022-12-23T03:37:05.584Z,60.02
2022-12-23T03:38:05.562Z,60.27
2022-12-23T03:39:05.560Z,60.53
2022-12-23T03:40:05.539Z,62.81
2022-12-23T03:41:05.546Z,61.33
2022-12-23T03:42:05.537Z,61.93
2022-12-23T03:43:05.518Z,59.21
2022-12-23T03:44:05.502Z,60.50
2022-12-23T03:46:07.534Z,60.20
2022-12-23T03:47:05.495Z,60.44
2022-12-23T03:48:05.477Z,58.46
2022-12-23T03:49:05.478Z,59.28
2022-12-23T03:50:05.446Z,60.68
2022-12-23T03:51:05.435Z,59.82
2022-12-23T03:52:05.445Z,60.39
2022-12-23T03:53:05.417Z,59.30
2022-12-23T03:54:05.420Z,59.49
2022-12-23T03:55:05.398Z,60.62
2022-12-23T03:56:05.389Z,61.42
2022-12-23T03:57:05.399Z,61.39
2022-12-23T03:58:05.361Z,61.18
2022-12-23T03:59:05.371Z,59.36
2022-12-23T04:00:05.358Z,60.99
2022-12-23T04:01:05.385Z,60.56
2022-12-23T04:02:05.484Z,61.17
2022-12-23T04:03:05.391Z,60.31
2022-12-23T04:04:05.338Z,62.03
2022-12-23T04:05:05.304Z,60.57
2022-12-23T04:06:05.276Z,62.46
2022-12-23T04:07:05.310Z,59.91
2022-12-23T04:08:05.278Z,62.36
2022-12-23T04:09:05.268Z,61.72
2022-12-23T04:10:05.249Z,62.82
2022-12-23T04:11:05.243Z,60.84
2022-12-23T04:12:05.264Z,61.51
2022-12-23T04:13:05.224Z,62.06
2022-12-23T04:14:05.206Z,62.18
2022-12-23T04:15:12.278Z,62.34
2022-12-23T04:16:06.209Z,62.38
2022-12-23T04:17:05.209Z,61.70
2022-12-23T04:18:05.170Z,61.70
2022-12-23T04:19:05.166Z,62.27
2022-12-23T04:20:05.168Z,62.40
2022-12-23T04:21:05.152Z,60.52
2022-12-23T04:22:05.129Z,61.68
2022-12-23T04:23:05.166Z,62.73
2022-12-23T04:24:05.108Z,60.75
2022-12-23T04:25:05.119Z,61.54
2022-12-23T04:26:05.092Z,62.42
2022-12-23T04:27:05.096Z,64.29
2022-12-23T04:28:05.099Z,63.59
2022-12-23T04:29:05.066Z,62.18
2022-12-23T04:30:05.059Z,61.67
2022-12-23T04:31:05.093Z,63.98
2022-12-23T04:32:05.046Z,61.86
2022-12-23T04:33:05.043Z,61.93
2022-12-23T04:34:05.022Z,60.78
2022-12-23T04:35:05.012Z,62.88
2022-12-23T04:36:05.008Z,62.28
2022-12-23T04:37:04.993Z,63.54
2022-12-23T04:38:05.000Z,61.76
2022-12-23T04:39:04.981Z,62.55
2022-12-23T04:40:04.968Z,63.90
2022-12-23T04:41:04.952Z,62.31
2022-12-23T04:42:04.951Z,63.84
2022-12-23T04:43:04.959Z,62.57
2022-12-23T04:44:04.960Z,62.86
2022-12-23T04:45:04.906Z,63.92
2022-12-23T04:46:04.907Z,62.58
2022-12-23T04:47:04.984Z,63.68
2022-12-23T04:48:04.910Z,62.26
2022-12-23T04:49:04.882Z,62.66
2022-12-23T04:50:04.871Z,61.58
2022-12-23T04:51:04.889Z,62.11
2022-12-23T04:52:04.843Z,63.60
2022-12-23T04:53:04.863Z,62.58
2022-12-23T04:54:04.830Z,61.68
2022-12-23T04:55:04.823Z,62.49
2022-12-23T04:56:04.815Z,63.82
2022-12-23T04:57:04.797Z,63.19
2022-12-23T04:58:04.818Z,61.52
2022-12-23T04:59:04.793Z,63.74
2022-12-23T05:00:04.779Z,64.80
2022-12-23T05:01:04.864Z,63.57
2022-12-23T05:02:04.923Z,64.17
2022-12-23T05:03:04.938Z,63.87
2022-12-23T05:04:04.774Z,61.92
2022-12-23T05:05:04.719Z,64.12
2022-12-23T05:06:04.718Z,63.34
2022-12-23T05:07:04.710Z,62.17
2022-12-23T05:08:04.733Z,65.02
2022-12-23T05:09:04.689Z,63.33
2022-12-23T05:10:04.674Z,64.33
2022-12-23T05:11:04.671Z,62.73
2022-12-23T05:12:04.659Z,63.51
2022-12-23T05:13:04.663Z,62.24
2022-12-23T05:14:04.643Z,64.70
2022-12-23T05:15:04.640Z,62.78
2022-12-23T05:16:04.665Z,62.08
2022-12-23T05:17:07.646Z,63.57
2022-12-23T05:18:04.624Z,64.78
2022-12-23T05:19:04.597Z,64.55
2022-12-23T05:20:04.588Z,64.68
2022-12-23T05:21:04.566Z,63.55
2022-12-23T05:22:04.563Z,64.17
2022-12-23T05:23:04.577Z,64.77
2022-12-23T05:24:04.570Z,64.37
2022-12-23T05:25:04.610Z,64.56
2022-12-23T05:26:04.528Z,63.79
2022-12-23T05:27:04.524Z,63.20
2022-12-23T05:28:04.540Z,64.65
2022-12-23T05:29:04.493Z,63.62
2022-12-23T05:30:04.494Z,65.36
2022-12-23T05:31:04.560Z,64.77
2022-12-23T05:32:04.554Z,64.08
2022-12-23T05:33:04.606Z,65.55
2022-12-23T05:34:06.804Z,65.78
2022-12-23T05:35:05.444Z,65.18
2022-12-23T05:36:04.452Z,65.05
2022-12-23T05:37:04.420Z,64.41
2022-12-23T05:38:04.435Z,63.76
2022-12-23T05:39:04.399Z,64.38
2022-12-23T05:40:04.401Z,65.54
2022-12-23T05:41:04.367Z,65.91
2022-12-23T05:42:04.359Z,65.95
2022-12-23T05:43:04.373Z,66.10
2022-12-23T05:44:04.344Z,64.23
2022-12-23T05:45:04.334Z,63.69
2022-12-23T05:46:04.387Z,65.46
2022-12-23T05:47:04.319Z,64.59
2022-12-23T05:48:04.338Z,64.93
2022-12-23T05:49:04.308Z,65.99
2022-12-23T05:50:04.282Z,65.82
2022-12-23T05:51:04.285Z,64.11
2022-12-23T05:52:04.268Z,65.49
2022-12-23T05:53:04.392Z,65.79
2022-12-23T05:54:04.253Z,65.31
2022-12-23T05:55:04.242Z,64.05
2022-12-23T05:56:04.229Z,65.02
2022-12-23T05:57:04.215Z,65.32
2022-12-23T05:58:04.230Z,66.32
2022-12-23T05:59:04.212Z,62.84
2022-12-23T06:00:04.218Z,64.57
2022-12-23T06:01:04.174Z,64.82
2022-12-23T06:02:04.367Z,64.22
2022-12-23T06:03:04.388Z,65.03
2022-12-23T06:04:04.270Z,64.15
2022-12-23T06:05:04.127Z,65.91
2022-12-23T06:06:04.139Z,65.04
2022-12-23T06:07:04.129Z,64.72
2022-12-23T06:08:04.103Z,63.98
2022-12-23T06:09:04.118Z,65.55
2022-12-23T06:10:04.099Z,64.02
2022-12-23T06:11:04.082Z,65.32
2022-12-23T06:12:04.087Z,66.77
2022-12-23T06:13:04.080Z,65.63
2022-12-23T06:14:04.079Z,65.38
2022-12-23T06:15:04.041Z,66.91
2022-12-23T06:16:04.052Z,65.79
2022-12-23T06:17:04.121Z,65.74
2022-12-23T06:18:04.012Z,64.30
2022-12-23T06:19:04.030Z,64.81
2022-12-23T06:20:04.210Z,64.83
2022-12-23T06:21:04.052Z,65.65
2022-12-23T06:22:03.986Z,64.80
2022-12-23T06:23:03.973Z,66.30
2022-12-23T06:24:03.985Z,64.30
2022-12-23T06:25:03.939Z,64.31
2022-12-23T06:26:03.941Z,65.31
2022-12-23T06:27:03.932Z,65.07
2022-12-23T06:28:03.929Z,64.52
2022-12-23T06:29:03.928Z,64.73
2022-12-23T06:30:03.906Z,65.02
2022-12-23T06:31:03.924Z,64.93
2022-12-23T06:32:03.924Z,65.05
2022-12-23T06:33:03.866Z,65.21
2022-12-23T06:34:03.887Z,65.11
2022-12-23T06:35:03.852Z,64.91
2022-12-23T06:36:03.846Z,65.33
2022-12-23T06:37:03.821Z,64.49
2022-12-23T06:38:07.507Z,63.89
2022-12-23T06:39:05.930Z,64.95
2022-12-23T06:40:03.804Z,64.88
2022-12-23T06:41:03.785Z,66.17
2022-12-23T06:42:03.782Z,64.54
2022-12-23T06:43:04.642Z,65.08
2022-12-23T06:44:03.774Z,65.48
2022-12-23T06:45:03.757Z,64.44
2022-12-23T06:46:03.785Z,65.76
2022-12-23T06:47:03.723Z,65.19
2022-12-23T06:48:04.707Z,64.68
2022-12-23T06:49:09.066Z,64.05
2022-12-23T06:50:05.710Z,64.37
2022-12-23T06:51:03.698Z,65.19
2022-12-23T06:52:03.671Z,64.27
2022-12-23T06:53:03.675Z,66.01
2022-12-23T06:54:03.702Z,64.85
2022-12-23T06:55:03.661Z,63.96
2022-12-23T06:56:03.705Z,66.26
2022-12-23T06:57:03.628Z,64.30
2022-12-23T06:58:03.643Z,65.07
2022-12-23T06:59:03.660Z,66.53
2022-12-23T07:00:03.639Z,65.00
2022-12-23T07:01:03.693Z,65.83
2022-12-23T07:02:03.803Z,65.81
2022-12-23T07:03:03.823Z,66.46
2022-12-23T07:04:03.603Z,65.55
2022-12-23T07:05:03.555Z,65.10
2022-12-23T07:06:03.573Z,65.80
2022-12-23T07:07:03.546Z,65.29
2022-12-23T07:08:03.522Z,66.89
2022-12-23T07:09:03.537Z,67.06
2022-12-23T07:10:03.543Z,64.35
2022-12-23T07:11:03.563Z,63.94
2022-12-23T07:12:03.509Z,65.94
2022-12-23T07:13:03.487Z,65.94
2022-12-23T07:14:03.512Z,65.11
2022-12-23T07:15:03.467Z,65.78
2022-12-23T07:16:03.447Z,64.50
2022-12-23T07:17:03.584Z,66.26
2022-12-23T07:18:03.436Z,65.92
2022-12-23T07:19:03.462Z,65.75
2022-12-23T07:20:03.404Z,65.84
2022-12-23T07:21:03.425Z,66.07
2022-12-23T07:22:03.405Z,66.45
2022-12-23T07:23:03.459Z,66.05
2022-12-23T07:24:03.402Z,66.26
2022-12-23T07:25:03.382Z,66.28
2022-12-23T07:26:03.358Z,66.54
2022-12-23T07:28:35.238Z,66.63
2022-12-23T07:29:03.353Z,65.31
2022-12-23T07:30:03.328Z,66.02
2022-12-23T07:31:03.317Z,66.60
2022-12-23T07:32:03.336Z,66.00
2022-12-23T07:33:04.287Z,66.65
2022-12-23T07:34:03.287Z,66.48
2022-12-23T07:35:03.263Z,64.74
2022-12-23T07:36:03.259Z,65.70
2022-12-23T07:37:03.249Z,66.87
2022-12-23T07:38:03.240Z,66.14
2022-12-23T07:39:03.244Z,66.06
2022-12-23T07:40:08.316Z,65.66
2022-12-23T07:41:05.208Z,66.20
2022-12-23T07:42:33.854Z,65.80
2022-12-23T07:43:05.271Z,65.60
2022-12-23T07:44:03.186Z,66.31
2022-12-23T07:45:03.167Z,67.22
2022-12-23T07:46:03.192Z,66.04
2022-12-23T07:47:03.156Z,66.36
2022-12-23T07:48:03.138Z,66.72
2022-12-23T07:49:03.151Z,66.53
2022-12-23T07:50:03.118Z,66.39
2022-12-23T07:51:03.111Z,66.09
2022-12-23T07:52:03.093Z,66.51
2022-12-23T07:53:03.098Z,65.81
2022-12-23T07:54:03.107Z,66.59
2022-12-23T07:55:03.075Z,67.59
2022-12-23T07:56:03.070Z,65.32
2022-12-23T07:57:03.044Z,66.45
2022-12-23T07:58:03.060Z,66.77
2022-12-23T07:59:03.186Z,67.24
2022-12-23T08:00:03.028Z,67.70
2022-12-23T08:01:03.113Z,67.49
2022-12-23T08:02:03.222Z,65.65
2022-12-23T08:03:03.169Z,66.77
2022-12-23T08:04:03.008Z,65.44
2022-12-23T08:05:03.037Z,65.52
2022-12-23T08:06:02.982Z,65.68
2022-12-23T08:07:02.949Z,66.11
2022-12-23T08:08:02.941Z,66.57
2022-12-23T08:09:02.957Z,67.56
2022-12-23T08:10:02.925Z,67.13
2022-12-23T08:11:02.909Z,65.68
2022-12-23T08:12:02.895Z,67.62
2022-12-23T08:13:02.909Z,66.23
2022-12-23T08:14:02.899Z,65.27
2022-12-23T08:15:02.899Z,65.24
2022-12-23T08:16:02.879Z,65.83
2022-12-23T08:17:03.001Z,66.13
2022-12-23T08:18:02.851Z,65.55
2022-12-23T08:19:02.830Z,66.50
2022-12-23T08:20:02.850Z,66.82
2022-12-23T08:21:02.823Z,65.71
2022-12-23T08:22:02.840Z,65.81
2022-12-23T08:23:02.787Z,67.96
2022-12-23T08:24:02.788Z,66.36
2022-12-23T08:25:02.793Z,67.26
2022-12-23T08:26:02.767Z,67.27
2022-12-23T08:27:02.769Z,67.80
2022-12-23T08:28:02.751Z,66.62
2022-12-23T08:29:02.745Z,67.58
2022-12-23T08:30:02.759Z,68.07
2022-12-23T08:31:02.806Z,66.76
2022-12-23T08:32:02.714Z,66.60
2022-12-23T08:33:02.706Z,65.85
2022-12-23T08:34:02.702Z,65.89
2022-12-23T08:35:02.714Z,66.17
2022-12-23T08:36:02.669Z,67.47
2022-12-23T08:37:02.672Z,67.93
2022-12-23T08:38:02.661Z,66.85
2022-12-23T08:39:02.645Z,66.76
2022-12-23T08:40:02.672Z,67.84
2022-12-23T08:41:02.637Z,66.50
2022-12-23T08:42:02.621Z,66.74
2022-12-23T08:43:02.604Z,67.35
2022-12-23T08:44:02.605Z,67.01
2022-12-23T08:45:02.609Z,67.72
2022-12-23T08:46:02.652Z,67.75
2022-12-23T08:47:02.554Z,66.28
2022-12-23T08:48:02.563Z,66.96
2022-12-23T08:49:02.554Z,67.16
2022-12-23T08:50:02.568Z,67.17
2022-12-23T08:51:02.528Z,66.64
2022-12-23T08:52:02.528Z,66.97
2022-12-23T08:53:02.511Z,66.31
2022-12-23T08:54:02.513Z,67.01
2022-12-23T08:55:02.501Z,65.18
2022-12-23T08:56:02.489Z,66.40
2022-12-23T08:57:02.480Z,67.09
2022-12-23T08:58:02.463Z,66.97
2022-12-23T08:59:02.481Z,66.88
2022-12-23T09:00:02.465Z,66.87
2022-12-23T09:01:02.472Z,68.32
2022-12-23T09:02:02.538Z,66.93
2022-12-23T09:03:02.630Z,66.61
2022-12-23T09:04:02.469Z,68.10
2022-12-23T09:05:02.492Z,67.80
2022-12-23T09:06:02.388Z,66.79
2022-12-23T09:07:02.389Z,66.04
2022-12-23T09:08:02.375Z,66.49
2022-12-23T09:09:02.397Z,66.57
2022-12-23T09:10:02.364Z,65.80
2022-12-23T09:11:02.329Z,65.90
2022-12-23T09:12:02.331Z,66.36
2022-12-23T09:13:02.325Z,67.31
2022-12-23T09:14:02.321Z,66.45
2022-12-23T09:15:02.320Z,67.02
2022-12-23T09:16:02.347Z,67.24
2022-12-23T09:17:02.286Z,67.70
2022-12-23T09:18:02.280Z,66.98
2022-12-23T09:19:02.263Z,66.85
2022-12-23T09:20:02.278Z,66.37
2022-12-23T09:21:02.246Z,67.10
2022-12-23T09:22:02.260Z,67.78
2022-12-23T09:23:02.228Z,66.09
2022-12-23T09:24:02.202Z,67.78
2022-12-23T09:25:05.236Z,66.86
2022-12-23T09:26:03.203Z,66.45
2022-12-23T09:27:02.184Z,66.16
2022-12-23T09:28:02.187Z,67.17
2022-12-23T09:29:02.179Z,66.52
2022-12-23T09:30:02.187Z,66.46
2022-12-23T09:31:02.172Z,65.94
2022-12-23T09:32:02.131Z,65.69
2022-12-23T09:33:02.139Z,66.06
2022-12-23T09:34:02.123Z,66.21
2022-12-23T09:35:02.119Z,66.24
2022-12-23T09:36:02.106Z,65.34
2022-12-23T09:37:02.100Z,65.98
2022-12-23T09:38:02.082Z,66.34
2022-12-23T09:39:02.065Z,66.68
2022-12-23T09:40:02.080Z,67.26
2022-12-23T09:41:02.056Z,65.77
2022-12-23T09:42:02.043Z,66.11
2022-12-23T09:43:02.054Z,66.33
2022-12-23T09:44:02.023Z,64.91
2022-12-23T09:45:02.060Z,65.54
2022-12-23T09:46:02.037Z,65.28
2022-12-23T09:47:02.173Z,66.73
2022-12-23T09:48:01.972Z,66.80
2022-12-23T09:49:02.004Z,66.45
2022-12-23T09:50:01.975Z,67.52
2022-12-23T09:51:02.951Z,66.07
2022-12-23T09:52:01.945Z,66.69
2022-12-23T09:53:01.936Z,66.05
2022-12-23T09:54:01.929Z,66.88
2022-12-23T09:55:01.942Z,66.26
2022-12-23T09:56:01.898Z,66.71
2022-12-23T09:57:01.893Z,66.77
2022-12-23T09:58:01.914Z,67.36
2022-12-23T09:59:01.897Z,66.96
2022-12-23T10:00:01.930Z,67.01
2022-12-23T10:01:01.858Z,66.76
2022-12-23T10:02:01.945Z,67.04
2022-12-23T10:03:01.951Z,67.44
2022-12-23T10:04:01.864Z,68.11
2022-12-23T10:05:01.832Z,66.89
2022-12-23T10:06:01.811Z,67.06
2022-12-23T10:07:03.172Z,67.03
2022-12-23T10:08:02.780Z,66.86
2022-12-23T10:09:01.767Z,67.01
2022-12-23T10:10:01.807Z,66.48
2022-12-23T10:11:01.803Z,67.12
2022-12-23T10:12:01.743Z,65.98
2022-12-23T10:13:01.727Z,67.07
2022-12-23T10:14:01.722Z,66.32
2022-12-23T10:15:01.726Z,68.22
2022-12-23T10:16:01.751Z,67.97
2022-12-23T10:17:01.701Z,66.78
2022-12-23T10:18:01.693Z,66.99
2022-12-23T10:19:01.661Z,67.51
2022-12-23T10:20:01.671Z,67.48
2022-12-23T10:21:01.676Z,67.78
2022-12-23T10:22:01.656Z,66.86
2022-12-23T10:23:01.617Z,66.97
2022-12-23T10:24:01.624Z,66.76
2022-12-23T10:25:01.635Z,66.20
2022-12-23T10:26:01.620Z,66.66
2022-12-23T10:27:01.589Z,67.38
2022-12-23T10:28:01.581Z,66.99
2022-12-23T10:29:01.566Z,67.38
2022-12-23T10:30:20.088Z,67.71
2022-12-23T10:31:39.255Z,67.23
2022-12-23T10:32:03.593Z,66.71
2022-12-23T10:33:01.530Z,67.09
2022-12-23T10:34:01.529Z,66.38
2022-12-23T10:35:01.557Z,66.11
2022-12-23T10:36:01.565Z,67.14
2022-12-23T10:37:01.559Z,66.64
2022-12-23T10:38:01.472Z,67.49
2022-12-23T10:39:01.484Z,67.28
2022-12-23T10:40:01.486Z,67.47
2022-12-23T10:41:08.872Z,67.02
2022-12-23T10:42:02.450Z,67.31
2022-12-23T10:43:01.435Z,66.35
2022-12-23T10:44:01.419Z,65.47
2022-12-23T10:45:01.417Z,67.55
2022-12-23T10:46:01.421Z,65.96
2022-12-23T10:47:01.482Z,66.25
2022-12-23T10:48:01.383Z,67.39
2022-12-23T10:49:01.388Z,66.17
2022-12-23T10:50:01.391Z,65.67
2022-12-23T10:51:01.383Z,65.50
2022-12-23T10:52:01.335Z,65.04
2022-12-23T10:53:01.326Z,66.22
2022-12-23T10:54:01.325Z,65.66
2022-12-23T10:55:01.396Z,65.96
2022-12-23T10:56:01.325Z,65.79
2022-12-23T10:57:01.296Z,65.22
2022-12-23T10:58:01.275Z,65.89
2022-12-23T10:59:01.288Z,66.37
2022-12-23T11:00:01.258Z,65.79
2022-12-23T11:01:01.351Z,64.64
2022-12-23T11:02:01.410Z,66.18
2022-12-23T11:03:01.357Z,65.54
2022-12-23T11:04:01.231Z,64.87
2022-12-23T11:05:01.213Z,66.36
2022-12-23T11:06:01.259Z,66.50
2022-12-23T11:07:34.481Z,67.07
2022-12-23T11:08:03.182Z,67.20
2022-12-23T11:09:01.161Z,66.22
2022-12-23T11:10:01.167Z,65.85
2022-12-23T11:11:01.187Z,66.66
2022-12-23T11:12:01.139Z,65.89
2022-12-23T11:13:01.127Z,65.88
2022-12-23T11:14:01.118Z,66.11
2022-12-23T11:15:01.107Z,66.02
2022-12-23T11:16:01.157Z,67.00
2022-12-23T11:17:01.075Z,65.10
2022-12-23T11:18:01.115Z,66.46
2022-12-23T11:19:01.101Z,66.69
2022-12-23T11:20:01.066Z,66.07
2022-12-23T11:21:01.073Z,65.91
2022-12-23T11:22:01.048Z,66.52
2022-12-23T11:23:01.034Z,66.03
2022-12-23T11:24:01.021Z,66.72
2022-12-23T11:25:01.017Z,66.31
2022-12-23T11:26:01.024Z,67.25
2022-12-23T11:27:00.998Z,65.91
2022-12-23T11:28:00.994Z,66.99
2022-12-23T11:29:00.980Z,65.96
2022-12-23T11:30:00.963Z,66.95
2022-12-23T11:31:00.975Z,66.75
2022-12-23T11:32:00.984Z,66.11
2022-12-23T11:33:00.945Z,66.72
2022-12-23T11:34:00.922Z,66.96
2022-12-23T11:35:01.001Z,66.07
2022-12-23T11:36:00.910Z,67.96
2022-12-23T11:37:05.396Z,66.34
2022-12-23T11:38:01.898Z,66.28
2022-12-23T11:39:00.866Z,65.68
2022-12-23T11:40:00.872Z,66.63
2022-12-23T11:41:00.878Z,66.61
2022-12-23T11:42:00.851Z,67.29
2022-12-23T11:43:00.875Z,67.43
2022-12-23T11:44:00.864Z,66.59
2022-12-23T11:45:00.834Z,65.66
2022-12-23T11:46:00.923Z,66.77
2022-12-23T11:47:00.808Z,66.30
2022-12-23T11:48:00.780Z,66.56
2022-12-23T11:49:00.793Z,66.55
2022-12-23T11:50:00.796Z,66.80
2022-12-23T11:51:00.777Z,66.78
2022-12-23T11:52:00.752Z,66.35
2022-12-23T11:53:00.728Z,67.28
2022-12-23T11:54:00.732Z,66.37
2022-12-23T11:55:00.708Z,66.57
2022-12-23T11:56:00.727Z,65.44
2022-12-23T11:57:00.799Z,67.17
2022-12-23T11:58:00.697Z,65.40
2022-12-23T11:59:01.695Z,67.04
2022-12-23T12:00:00.693Z,65.52
2022-12-23T12:01:00.665Z,65.69
2022-12-23T12:02:00.698Z,67.07
2022-12-23T12:03:00.665Z,65.64
2022-12-23T12:04:00.719Z,66.08
2022-12-23T12:05:00.605Z,65.63
2022-12-23T12:06:00.617Z,66.92
2022-12-23T12:07:00.601Z,66.37
2022-12-23T12:08:00.588Z,65.58
2022-12-23T12:09:00.566Z,67.07
2022-12-23T12:10:00.567Z,65.11
2022-12-23T12:11:00.571Z,65.99
2022-12-23T12:12:00.586Z,66.61
2022-12-23T12:13:00.553Z,66.75
2022-12-23T12:14:00.537Z,65.54
2022-12-23T12:15:00.534Z,66.00
2022-12-23T12:16:00.535Z,65.25
2022-12-23T12:17:00.552Z,64.47
2022-12-23T12:18:00.493Z,65.26
2022-12-23T12:19:00.475Z,64.87
2022-12-23T12:20:00.483Z,64.45
2022-12-23T12:21:00.445Z,63.00
2022-12-23T12:22:00.477Z,63.96
2022-12-23T12:23:00.452Z,64.55
2022-12-23T12:24:17.786Z,63.76
2022-12-23T12:25:02.411Z,64.94
2022-12-23T12:26:00.422Z,63.09
2022-12-23T12:27:00.433Z,65.61
2022-12-23T12:28:00.393Z,64.62
2022-12-23T12:29:00.369Z,63.68
2022-12-23T12:30:06.163Z,65.49
2022-12-23T12:31:01.420Z,63.72
2022-12-23T12:32:00.365Z,64.61
2022-12-23T12:33:00.326Z,62.98
2022-12-23T12:34:00.320Z,63.71
2022-12-23T12:35:00.320Z,64.38
2022-12-23T12:36:05.168Z,65.40
2022-12-23T12:37:01.418Z,64.81
2022-12-23T12:38:00.281Z,64.85
2022-12-23T12:39:00.283Z,64.82
2022-12-23T12:40:00.270Z,64.90
2022-12-23T12:41:00.239Z,65.99
2022-12-23T12:42:05.573Z,66.30
2022-12-23T12:43:02.228Z,65.07
2022-12-23T12:44:00.216Z,65.93
2022-12-23T12:45:00.210Z,65.20
2022-12-23T12:46:00.265Z,65.21
2022-12-23T12:47:00.209Z,65.99
2022-12-23T12:48:09.943Z,67.07
2022-12-23T12:49:02.176Z,66.07
2022-12-23T12:50:00.207Z,65.49
2022-12-23T12:51:00.166Z,65.58
2022-12-23T12:52:00.166Z,65.99
2022-12-23T12:53:00.124Z,66.96
2022-12-23T12:54:05.078Z,65.08